Time;durP1;ratioP1;P1;durP2;ratioP2;P2;SDS_P1;SDS_P2;PMS_P1;PMS_P2;Temp;Humidity;BMP_temperature;BMP_pressure;BME280_temperature;BME280_humidity;BME280_pressure;Samples;Min_cycle;Max_cycle;Signal;HPM_P1;HPM_P2
2023/07/06 00:01:22;;;;;;;3.10;2.07;;;;;;;16.59;100.00;96546.53;4950513;28;102459;-61
2023/07/06 00:03:50;;;;;;;5.37;2.40;;;;;;;16.69;100.00;96551.81;4953677;28;102609;-61
2023/07/06 00:06:17;;;;;;;2.47;2.17;;;;;;;16.89;100.00;96551.59;4950669;28;102958;-61
2023/07/06 00:08:46;;;;;;;4.90;2.07;;;;;;;16.95;100.00;96556.59;4948721;28;105843;-62
2023/07/06 00:11:13;;;;;;;4.30;2.10;;;;;;;16.91;100.00;96560.16;4950460;28;101907;-62
2023/07/06 00:13:40;;;;;;;6.53;2.27;;;;;;;17.00;100.00;96553.88;4949361;28;105584;-61
2023/07/06 00:16:08;;;;;;;4.17;2.37;;;;;;;16.83;100.00;96564.28;4948613;28;105509;-61
2023/07/06 00:18:35;;;;;;;4.37;2.03;;;;;;;16.84;100.00;96560.50;4950557;28;103377;-61
2023/07/06 00:21:03;;;;;;;4.40;2.07;;;;;;;16.71;100.00;96560.38;4950519;28;102888;-61
2023/07/06 00:23:31;;;;;;;3.23;2.00;;;;;;;16.44;100.00;96549.38;4953500;28;103163;-61
2023/07/06 00:25:59;;;;;;;4.00;2.50;;;;;;;16.38;100.00;96558.53;4951302;28;102551;-61
2023/07/06 00:28:28;;;;;;;3.13;2.40;;;;;;;16.15;100.00;96556.56;4951926;28;105748;-61
2023/07/06 00:31:01;;;;;;;4.30;2.60;;;;;;;16.57;100.00;96562.13;4953689;28;101975;-61
2023/07/06 00:33:29;;;;;;;4.10;2.27;;;;;;;16.37;100.00;96559.59;4954014;28;102913;-61
2023/07/06 00:35:56;;;;;;;4.63;2.77;;;;;;;16.52;100.00;96557.59;4951733;28;105411;-61
2023/07/06 00:38:25;;;;;;;3.67;2.40;;;;;;;16.42;100.00;96562.28;4951929;28;101960;-61
2023/07/06 00:40:55;;;;;;;3.73;2.33;;;;;;;16.49;100.00;96563.56;4952267;28;105745;-61
2023/07/06 00:43:26;;;;;;;3.87;2.70;;;;;;;16.36;100.00;96561.47;4951819;28;106112;-61
2023/07/06 00:45:56;;;;;;;4.13;2.70;;;;;;;16.06;100.00;96563.63;4955692;28;102027;-61
2023/07/06 00:48:27;;;;;;;3.10;2.50;;;;;;;16.08;100.00;96566.84;4951578;28;105372;-60
2023/07/06 00:50:57;;;;;;;3.07;2.50;;;;;;;16.02;100.00;96562.59;4953761;28;101808;-60
2023/07/06 00:53:29;;;;;;;3.03;2.43;;;;;;;16.08;100.00;96564.16;4952388;28;105909;-60
2023/07/06 00:55:58;;;;;;;3.53;2.20;;;;;;;16.16;100.00;96569.72;4951658;28;105600;-60
2023/07/06 00:58:31;;;;;;;4.00;2.60;;;;;;;16.06;100.00;96564.44;4952376;28;101931;-60
2023/07/06 01:01:02;;;;;;;2.50;2.23;;;;;;;16.15;100.00;96570.81;4951794;28;105704;-60
2023/07/06 01:03:29;;;;;;;3.77;2.37;;;;;;;16.03;100.00;96574.91;4951419;28;106022;-60
2023/07/06 01:06:01;;;;;;;3.47;2.63;;;;;;;15.65;100.00;96586.44;4953182;28;101844;-60
2023/07/06 01:08:29;;;;;;;3.17;2.70;;;;;;;15.40;100.00;96589.25;4956423;28;102321;-60
2023/07/06 01:10:58;;;;;;;3.50;3.20;;;;;;;15.27;100.00;96581.78;4951751;28;101796;-60
2023/07/06 01:13:27;;;;;;;6.60;2.50;;;;;;;15.60;100.00;96589.16;4951852;28;105454;-60
2023/07/06 01:16:01;;;;;;;3.67;2.67;;;;;;;15.92;100.00;96592.94;4951073;28;105854;-60
2023/07/06 01:18:37;;;;;;;2.60;2.40;;;;;;;15.64;100.00;96598.25;4951864;28;101977;-60
2023/07/06 01:21:10;;;;;;;2.83;2.60;;;;;;;15.73;100.00;96583.97;4953296;28;102417;-60
2023/07/06 01:24:05;;;;;;;5.60;3.00;;;;;;;15.59;100.00;96580.28;4951126;28;105868;-60
2023/07/06 01:26:51;;;;;;;7.20;2.80;;;;;;;15.82;100.00;96579.63;4953055;28;101740;-60
2023/07/06 01:29:53;;;;;;;5.30;3.13;;;;;;;15.64;100.00;96585.63;4953380;28;103165;-60
2023/07/06 01:32:26;;;;;;;3.47;2.80;;;;;;;15.54;100.00;96588.34;4954352;28;105880;-60
2023/07/06 01:34:58;;;;;;;3.47;2.80;;;;;;;15.59;100.00;96591.00;4951462;28;105242;-60
2023/07/06 01:37:30;;;;;;;5.67;2.80;;;;;;;15.76;100.00;96579.94;4952154;28;103125;-60
2023/07/06 01:39:59;;;;;;;3.77;2.63;;;;;;;16.22;100.00;96581.19;4952696;28;101880;-60
2023/07/06 01:42:29;;;;;;;3.20;2.50;;;;;;;16.23;100.00;96574.75;4952881;28;102551;-60
2023/07/06 01:45:02;;;;;;;4.20;2.70;;;;;;;16.33;100.00;96569.28;4950922;28;105778;-60
2023/07/06 01:47:33;;;;;;;3.73;2.50;;;;;;;16.43;100.00;96569.25;4952522;28;102093;-60
2023/07/06 01:50:03;;;;;;;5.20;3.03;;;;;;;16.49;100.00;96570.78;4951366;28;105805;-60
2023/07/06 01:52:44;;;;;;;4.37;2.30;;;;;;;16.57;100.00;96565.59;4950453;28;105357;-61
2023/07/06 01:55:20;;;;;;;4.07;2.77;;;;;;;16.71;100.00;96560.38;4954476;28;101833;-60
2023/07/06 01:57:51;;;;;;;4.70;2.67;;;;;;;16.89;100.00;96567.72;4950680;28;105710;-60
2023/07/06 02:00:20;;;;;;;4.67;3.00;;;;;;;16.65;100.00;96561.50;4951018;28;101855;-60
2023/07/06 02:02:52;;;;;;;3.67;2.50;;;;;;;16.76;100.00;96552.25;4951203;28;104191;-60
2023/07/06 02:05:20;;;;;;;4.30;2.40;;;;;;;16.98;100.00;96550.69;4951717;28;103172;-60
2023/07/06 02:07:49;;;;;;;2.80;2.43;;;;;;;16.86;100.00;96544.09;4950648;28;101933;-60
2023/07/06 02:10:18;;;;;;;3.50;2.67;;;;;;;16.71;100.00;96533.50;4952592;28;102392;-60
2023/07/06 02:12:47;;;;;;;2.97;2.30;;;;;;;16.74;100.00;96533.75;4950317;28;105496;-61
2023/07/06 02:15:16;;;;;;;5.03;2.40;;;;;;;16.83;100.00;96531.22;4950965;28;102189;-61
2023/07/06 02:17:44;;;;;;;3.60;3.00;;;;;;;16.76;100.00;96530.78;4954422;28;103382;-61
2023/07/06 02:20:15;;;;;;;4.03;2.57;;;;;;;16.76;100.00;96528.09;4952098;28;101854;-61
2023/07/06 02:22:42;;;;;;;7.43;2.47;;;;;;;16.55;100.00;96527.50;4952041;28;102545;-61
2023/07/06 02:25:09;;;;;;;3.03;2.60;;;;;;;16.42;100.00;96527.38;4950241;28;105597;-61
2023/07/06 02:27:36;;;;;;;2.67;2.47;;;;;;;15.88;100.00;96526.75;4950769;28;101920;-61
2023/07/06 02:30:04;;;;;;;3.93;2.63;;;;;;;16.16;100.00;96526.78;4950530;28;103559;-60
2023/07/06 02:32:33;;;;;;;3.17;2.73;;;;;;;16.04;100.00;96537.09;4950358;28;105824;-61
2023/07/06 02:34:59;;;;;;;2.77;2.57;;;;;;;16.25;100.00;96535.03;4950558;28;102010;-61
2023/07/06 02:37:30;;;;;;;4.60;2.43;;;;;;;16.38;100.00;96540.53;4953435;28;105257;-60
2023/07/06 02:39:58;;;;;;;4.10;2.80;;;;;;;16.21;100.00;96540.16;4951934;28;101831;-61
2023/07/06 02:42:26;;;;;;;2.60;2.40;;;;;;;16.18;100.00;96529.97;4950474;28;105242;-61
2023/07/06 02:44:53;;;;;;;4.20;2.70;;;;;;;16.19;100.00;96541.53;4950042;28;105378;-61
2023/07/06 02:47:21;;;;;;;4.27;2.73;;;;;;;15.95;100.00;96543.31;4950622;28;102008;-61
2023/07/06 02:49:49;;;;;;;2.80;2.40;;;;;;;16.08;100.00;96532.75;4949769;28;105335;-61
2023/07/06 02:52:17;;;;;;;7.70;3.10;;;;;;;16.15;100.00;96545.84;4949247;28;105718;-60
2023/07/06 02:54:45;;;;;;;3.97;3.07;;;;;;;16.15;100.00;96535.94;4950514;28;102112;-61
2023/07/06 02:57:12;;;;;;;4.40;2.57;;;;;;;16.47;100.00;96533.47;4950146;28;105160;-62
2023/07/06 02:59:39;;;;;;;4.03;2.53;;;;;;;16.70;100.00;96532.72;4954702;28;101787;-61
2023/07/06 03:02:08;;;;;;;4.27;2.70;;;;;;;16.25;100.00;96529.66;4950031;28;105142;-60
2023/07/06 03:04:36;;;;;;;3.20;2.60;;;;;;;15.97;100.00;96533.13;4950931;28;103124;-61
2023/07/06 03:07:04;;;;;;;3.80;2.50;;;;;;;16.01;100.00;96534.97;4950327;28;102151;-60
2023/07/06 03:09:30;;;;;;;3.20;2.60;;;;;;;16.04;100.00;96534.41;4951422;28;102973;-60
2023/07/06 03:11:59;;;;;;;2.93;2.63;;;;;;;16.07;100.00;96546.47;4948941;28;105507;-61
2023/07/06 03:14:26;;;;;;;3.30;2.60;;;;;;;16.14;100.00;96534.31;4950104;28;102055;-60
2023/07/06 03:16:54;;;;;;;3.10;2.40;;;;;;;16.35;100.00;96537.63;4949868;28;105036;-60
2023/07/06 03:19:22;;;;;;;4.70;2.60;;;;;;;16.39;100.00;96541.34;4949481;28;105834;-60
2023/07/06 03:21:49;;;;;;;2.77;2.57;;;;;;;16.47;100.00;96541.53;4953399;28;102197;-61
2023/07/06 03:24:16;;;;;;;4.37;2.70;;;;;;;16.48;100.00;96540.47;4949290;28;106017;-61
2023/07/06 03:26:43;;;;;;;5.27;2.53;;;;;;;16.46;100.00;96542.63;4949996;28;101944;-60
2023/07/06 03:29:13;;;;;;;3.30;2.87;;;;;;;16.43;100.00;96542.41;4951502;28;102693;-61
2023/07/06 03:31:40;;;;;;;3.13;2.43;;;;;;;16.10;100.00;96541.34;4949030;28;105724;-60
2023/07/06 03:34:08;;;;;;;3.33;2.50;;;;;;;16.14;100.00;96544.25;4949580;28;102279;-60
2023/07/06 03:36:38;;;;;;;10.07;2.60;;;;;;;15.94;100.00;96539.84;4949548;28;105079;-60
2023/07/06 03:39:11;;;;;;;3.37;2.90;;;;;;;15.98;100.00;96545.44;4948774;28;105717;-60
2023/07/06 03:41:38;;;;;;;8.27;3.53;;;;;;;16.06;100.00;96551.00;4949141;28;101850;-61
2023/07/06 03:44:05;;;;;;;7.00;3.37;;;;;;;16.08;100.00;96546.16;4952018;28;104911;-60
2023/07/06 03:46:34;;;;;;;6.30;3.30;;;;;;;16.26;100.00;96540.13;4949710;28;101834;-60
2023/07/06 03:49:03;;;;;;;10.03;3.10;;;;;;;16.27;100.00;96544.41;4949613;28;104837;-60
2023/07/06 03:51:30;;;;;;;8.63;3.80;;;;;;;15.83;100.00;96548.25;4948860;28;105363;-60
2023/07/06 03:53:57;;;;;;;5.23;3.10;;;;;;;15.54;100.00;96555.41;4949758;28;102028;-60
2023/07/06 03:56:27;;;;;;;5.23;3.30;;;;;;;15.84;100.00;96561.38;4949391;28;105567;-60
2023/07/06 03:58:56;;;;;;;6.57;3.50;;;;;;;15.95;100.00;96556.72;4949055;28;103996;-60
2023/07/06 04:01:23;;;;;;;8.20;2.97;;;;;;;16.17;100.00;96563.25;4951006;28;102082;-60
2023/07/06 04:03:52;;;;;;;6.17;3.17;;;;;;;16.39;100.00;96562.81;4953859;28;102422;-60
2023/07/06 04:06:20;;;;;;;5.80;2.97;;;;;;;16.62;100.00;96562.09;4955717;28;103990;-60
2023/07/06 04:08:46;;;;;;;5.90;3.53;;;;;;;16.64;100.00;96555.34;4953106;28;105128;-60
2023/07/06 04:11:13;;;;;;;5.00;3.20;;;;;;;16.75;100.00;96556.03;4951988;28;105125;-60
2023/07/06 04:13:41;;;;;;;5.60;3.10;;;;;;;16.83;100.00;96550.84;4954105;28;101850;-60
2023/07/06 04:16:14;;;;;;;5.90;3.10;;;;;;;16.84;100.00;96554.34;4953000;28;104142;-60
2023/07/06 04:18:40;;;;;;;4.47;3.30;;;;;;;16.86;100.00;96549.47;4951615;28;105516;-60
2023/07/06 04:21:09;;;;;;;3.67;3.30;;;;;;;16.67;100.00;96548.63;4952701;28;102000;-60
2023/07/06 04:23:36;;;;;;;5.73;3.70;;;;;;;16.49;100.00;96546.63;4937246;28;105286;-60
2023/07/06 04:26:03;;;;;;;6.57;3.30;;;;;;;16.35;100.00;96545.69;4952148;28;103904;-60
2023/07/06 04:28:30;;;;;;;3.53;2.90;;;;;;;16.39;100.00;96546.72;4956139;28;101794;-60
2023/07/06 04:30:57;;;;;;;4.53;3.30;;;;;;;16.39;100.00;96546.72;4951910;28;105162;-60
2023/07/06 04:33:24;;;;;;;2.90;2.70;;;;;;;16.32;100.00;96546.22;4952542;28;102003;-60
2023/07/06 04:35:52;;;;;;;3.60;2.90;;;;;;;16.51;100.00;96549.84;4952267;28;105790;-60
2023/07/06 04:38:21;;;;;;;4.37;3.10;;;;;;;16.26;100.00;96558.09;4951564;28;105768;-60
2023/07/06 04:40:50;;;;;;;5.30;3.13;;;;;;;16.54;100.00;96554.63;4952219;28;102369;-60
2023/07/06 04:43:17;;;;;;;5.87;3.13;;;;;;;16.47;100.00;96554.97;4952480;28;105231;-60
2023/07/06 04:45:44;;;;;;;4.70;2.97;;;;;;;16.49;100.00;96555.50;4951599;28;103846;-60
2023/07/06 04:48:12;;;;;;;4.23;3.20;;;;;;;16.70;100.00;96562.28;4955584;28;101914;-60
2023/07/06 04:50:40;;;;;;;3.90;3.17;;;;;;;16.63;100.00;96559.09;4951615;28;105410;-60
2023/07/06 04:53:07;;;;;;;3.43;3.10;;;;;;;16.60;100.00;96558.88;4952731;28;102143;-60
2023/07/06 04:55:36;;;;;;;4.23;3.07;;;;;;;16.83;100.00;96560.78;4952147;28;105223;-60
2023/07/06 04:58:05;;;;;;;5.83;3.70;;;;;;;16.98;100.00;96555.25;4951462;28;105857;-60
2023/07/06 05:00:34;;;;;;;3.00;2.80;;;;;;;16.90;100.00;96563.94;4952019;28;102212;-60
2023/07/06 05:03:06;;;;;;;4.23;3.03;;;;;;;17.11;100.00;96557.25;4951881;28;104862;-60
2023/07/06 05:05:38;;;;;;;5.03;2.97;;;;;;;17.01;100.00;96557.38;4950766;28;105902;-60
2023/07/06 05:08:06;;;;;;;5.27;3.03;;;;;;;17.55;100.00;96552.41;4947271;28;102080;-60
2023/07/06 05:10:35;;;;;;;3.73;2.90;;;;;;;17.88;100.00;96548.69;4956128;28;102679;-60
2023/07/06 05:13:02;;;;;;;3.30;2.60;;;;;;;18.53;100.00;96548.44;4952651;28;101880;-60
2023/07/06 05:15:29;;;;;;;4.67;2.53;;;;;;;18.40;100.00;96551.09;4952755;28;102614;-59
2023/07/06 05:17:56;;;;;;;4.63;2.20;;;;;;;18.75;100.00;96548.56;4950702;28;105371;-59
2023/07/06 05:20:24;;;;;;;6.57;2.73;;;;;;;18.62;100.00;96543.97;4952692;28;101958;-60
2023/07/06 05:22:52;;;;;;;4.70;2.60;;;;;;;18.89;100.00;96546.69;4952943;28;102658;-59
2023/07/06 05:25:20;;;;;;;5.37;2.70;;;;;;;18.92;100.00;96548.00;4950894;28;103724;-60
2023/07/06 05:27:49;;;;;;;5.90;2.63;;;;;;;19.00;100.00;96544.59;4951538;28;101905;-59
2023/07/06 05:30:17;;;;;;;5.40;2.30;;;;;;;19.04;100.00;96542.91;4952352;28;103058;-59
2023/07/06 05:32:44;;;;;;;4.27;3.00;;;;;;;19.32;100.00;96544.50;4955240;28;102514;-59
2023/07/06 05:35:13;;;;;;;4.00;2.40;;;;;;;19.19;100.00;96548.00;4951331;28;105311;-59
2023/07/06 05:37:41;;;;;;;4.00;2.60;;;;;;;18.39;100.00;96536.03;4950741;28;105756;-59
2023/07/06 05:40:09;;;;;;;3.53;2.23;;;;;;;18.80;100.00;96545.00;4952480;28;102098;-59
2023/07/06 05:42:36;;;;;;;4.27;2.27;;;;;;;18.97;100.00;96542.50;4951427;28;105570;-59
2023/07/06 05:45:05;;;;;;;2.53;2.33;;;;;;;19.07;100.00;96535.00;4952165;28;102550;-59
2023/07/06 05:47:32;;;;;;;2.97;2.30;;;;;;;18.97;100.00;96540.59;4952644;28;101886;-59
2023/07/06 05:49:58;;;;;;;3.70;2.40;;;;;;;18.93;100.00;96544.19;4951168;28;103808;-59
2023/07/06 05:52:26;;;;;;;3.30;2.60;;;;;;;18.81;100.00;96546.59;4952161;28;103208;-59
2023/07/06 05:54:53;;;;;;;4.00;2.23;;;;;;;18.69;100.00;96536.28;4954268;28;102217;-59
2023/07/06 05:57:20;;;;;;;3.30;2.60;;;;;;;18.94;100.00;96537.72;4950411;28;105306;-59
2023/07/06 05:59:48;;;;;;;2.13;1.93;;;;;;;18.70;100.00;96534.41;4950972;28;101921;-58
2023/07/06 06:02:20;;;;;;;2.60;2.40;;;;;;;18.50;100.00;96534.75;4951220;28;104829;-59
2023/07/06 06:04:48;;;;;;;2.73;2.50;;;;;;;18.07;100.00;96538.69;4950550;28;105795;-59
2023/07/06 06:07:18;;;;;;;3.87;2.53;;;;;;;18.19;100.00;96539.03;4951124;28;101970;-59
2023/07/06 06:09:44;;;;;;;2.80;2.60;;;;;;;18.34;100.00;96549.59;4950913;28;105482;-59
2023/07/06 06:12:18;;;;;;;4.07;2.80;;;;;;;18.43;100.00;96555.91;4950379;28;105256;-59
2023/07/06 06:14:45;;;;;;;2.87;2.53;;;;;;;18.13;100.00;96551.78;4952515;28;101718;-57
2023/07/06 06:17:13;;;;;;;3.87;2.73;;;;;;;18.08;100.00;96561.81;4953483;28;105043;-59
2023/07/06 06:19:45;;;;;;;4.13;2.40;;;;;;;17.70;100.00;96563.75;4952011;28;102213;-59
2023/07/06 06:22:14;;;;;;;3.37;2.60;;;;;;;17.64;100.00;96558.72;4951106;28;105677;-59
2023/07/06 06:24:41;;;;;;;2.93;2.70;;;;;;;17.34;100.00;96559.09;4948911;28;105381;-59
2023/07/06 06:27:08;;;;;;;4.10;2.57;;;;;;;17.39;100.00;96559.06;4950704;28;101932;-59
2023/07/06 06:29:36;;;;;;;4.00;2.70;;;;;;;17.81;100.00;96559.00;4950558;28;105420;-59
2023/07/06 06:32:04;;;;;;;4.10;2.50;;;;;;;18.15;100.00;96559.56;4949940;28;105717;-59
2023/07/06 06:34:31;;;;;;;3.07;2.40;;;;;;;18.55;100.00;96559.72;4950659;28;101949;-61
2023/07/06 06:37:00;;;;;;;3.90;2.50;;;;;;;18.25;100.00;96554.03;4950254;28;105019;-58
2023/07/06 06:39:27;;;;;;;4.50;2.70;;;;;;;18.34;100.00;96555.78;4952813;28;102312;-58
2023/07/06 06:41:54;;;;;;;4.57;2.57;;;;;;;18.83;100.00;96555.16;4949993;28;104849;-57
2023/07/06 06:44:23;;;;;;;3.07;2.77;;;;;;;18.98;100.00;96553.00;4949185;28;105085;-58
2023/07/06 06:46:50;;;;;;;4.07;2.77;;;;;;;19.32;100.00;96555.31;4951155;28;101845;-58
2023/07/06 06:49:17;;;;;;;3.13;2.73;;;;;;;19.07;100.00;96553.88;4951219;28;102913;-58
2023/07/06 06:51:44;;;;;;;2.70;2.50;;;;;;;18.94;100.00;96551.19;4950451;28;102516;-58
2023/07/06 06:54:13;;;;;;;3.03;2.37;;;;;;;18.93;100.00;96555.78;4951164;28;101877;-58
2023/07/06 06:56:40;;;;;;;2.70;2.50;;;;;;;18.44;100.00;96557.50;4950839;28;101779;-58
2023/07/06 06:59:11;;;;;;;3.90;2.33;;;;;;;18.66;100.00;96549.56;4953690;28;103575;-58
2023/07/06 07:01:40;;;;;;;3.10;2.63;;;;;;;19.09;100.00;96554.41;4951206;28;103032;-58
2023/07/06 07:04:09;;;;;;;2.50;2.30;;;;;;;19.62;100.00;96552.75;4950172;28;103132;-58
2023/07/06 07:06:38;;;;;;;4.10;2.40;;;;;;;19.42;100.00;96541.59;4949514;28;101914;-58
2023/07/06 07:09:09;;;;;;;2.60;2.30;;;;;;;19.90;100.00;96543.47;4949645;28;105468;-58
2023/07/06 07:11:37;;;;;;;3.00;2.13;;;;;;;20.55;100.00;96544.59;4950315;28;102559;-58
2023/07/06 07:14:07;;;;;;;3.97;2.40;;;;;;;19.68;100.00;96551.53;4950923;28;101874;-58
2023/07/06 07:16:35;;;;;;;2.27;2.07;;;;;;;20.07;100.00;96550.97;4950549;28;102936;-58
2023/07/06 07:19:01;;;;;;;2.40;2.20;;;;;;;20.25;100.00;96552.69;4950052;28;103021;-58
2023/07/06 07:21:29;;;;;;;3.97;2.30;;;;;;;20.40;100.00;96555.00;4954071;28;102268;-58
2023/07/06 07:23:55;;;;;;;2.60;2.40;;;;;;;20.73;100.00;96551.72;4950066;28;102905;-58
2023/07/06 07:26:25;;;;;;;2.43;2.23;;;;;;;20.55;100.00;96554.63;4949084;28;102329;-58
2023/07/06 07:28:54;;;;;;;3.30;3.00;;;;;;;20.28;100.00;96550.16;4950441;28;102949;-58
2023/07/06 07:31:22;;;;;;;2.87;2.60;;;;;;;20.33;100.00;96544.63;4948517;28;105429;-58
2023/07/06 07:33:49;;;;;;;3.10;2.27;;;;;;;20.12;100.00;96548.16;4950426;28;101872;-59
2023/07/06 07:36:18;;;;;;;3.00;2.50;;;;;;;19.71;100.00;96533.94;4948234;28;104636;-58
2023/07/06 07:38:46;;;;;;;3.27;2.70;;;;;;;19.92;100.00;96541.28;4949255;28;103156;-59
2023/07/06 07:41:16;;;;;;;2.43;2.20;;;;;;;20.12;100.00;96540.03;4949041;28;102235;-58
2023/07/06 07:43:46;;;;;;;2.67;2.40;;;;;;;20.57;100.00;96537.00;4951905;28;105622;-58
2023/07/06 07:46:16;;;;;;;2.97;2.67;;;;;;;20.35;100.00;96536.22;4950284;28;102035;-58
2023/07/06 07:48:45;;;;;;;2.67;2.43;;;;;;;20.90;100.00;96537.50;4948853;28;106467;-58
2023/07/06 07:51:14;;;;;;;2.83;2.60;;;;;;;20.77;100.00;96531.03;4948222;28;104366;-58
2023/07/06 07:53:44;;;;;;;3.07;2.73;;;;;;;20.53;100.00;96537.91;4950164;28;101842;-59
2023/07/06 07:56:13;;;;;;;2.80;2.60;;;;;;;20.80;100.00;96545.84;4949976;28;102966;-58
2023/07/06 07:58:40;;;;;;;2.50;2.10;;;;;;;20.75;100.00;96535.16;4949568;28;103108;-58
2023/07/06 08:01:09;;;;;;;3.20;2.50;;;;;;;20.54;100.00;96542.25;4950127;28;101878;-58
2023/07/06 08:03:38;;;;;;;2.60;2.40;;;;;;;20.88;100.00;96537.00;4948527;28;105622;-58
2023/07/06 08:06:08;;;;;;;3.53;2.60;;;;;;;20.86;100.00;96539.19;4952913;28;103097;-58
2023/07/06 08:08:36;;;;;;;3.83;2.67;;;;;;;21.04;100.00;96546.31;4950017;28;103263;-58
2023/07/06 08:11:05;;;;;;;3.10;2.80;;;;;;;21.14;100.00;96546.03;4947865;28;104701;-58
2023/07/06 08:13:33;;;;;;;2.60;2.40;;;;;;;20.64;100.00;96541.94;4949957;28;102012;-58
2023/07/06 08:16:00;;;;;;;3.20;2.70;;;;;;;20.71;100.00;96550.44;4950030;28;102552;-58
2023/07/06 08:18:27;;;;;;;2.60;2.40;;;;;;;20.59;100.00;96542.88;4947905;28;105507;-58
2023/07/06 08:20:56;;;;;;;2.57;2.37;;;;;;;20.40;100.00;96541.50;4949924;28;101917;-58
2023/07/06 08:23:24;;;;;;;3.10;2.30;;;;;;;20.56;100.00;96542.72;4948265;28;105466;-58
2023/07/06 08:25:52;;;;;;;5.13;3.23;;;;;;;20.42;100.00;96544.69;4949373;28;103073;-58
2023/07/06 08:28:21;;;;;;;2.83;2.60;;;;;;;20.06;100.00;96539.31;4953193;28;101856;-58
2023/07/06 08:30:51;;;;;;;3.07;2.53;;;;;;;20.20;100.00;96542.00;4947739;28;105718;-58
2023/07/06 08:33:20;;;;;;;3.83;2.63;;;;;;;20.64;100.00;96541.94;4949683;28;101949;-58
2023/07/06 08:35:49;;;;;;;3.23;2.57;;;;;;;20.52;100.00;96545.25;4948071;28;104746;-59
2023/07/06 08:38:17;;;;;;;2.60;2.40;;;;;;;20.68;100.00;96548.34;4947441;28;105887;-57
2023/07/06 08:40:51;;;;;;;3.83;2.70;;;;;;;20.64;100.00;96548.16;4948267;28;102168;-58
2023/07/06 08:43:22;;;;;;;2.60;2.40;;;;;;;20.68;100.00;96553.75;4948521;28;104990;-58
2023/07/06 08:45:56;;;;;;;2.90;2.67;;;;;;;20.62;100.00;96549.56;4949091;28;103545;-58
2023/07/06 08:48:26;;;;;;;3.17;2.47;;;;;;;20.95;100.00;96550.88;4956363;28;101708;-58
2023/07/06 08:50:57;;;;;;;4.30;2.30;;;;;;;20.83;100.00;96550.66;4952209;28;102518;-58
2023/07/06 08:53:30;;;;;;;4.23;2.47;;;;;;;20.79;100.00;96545.06;4952878;28;101733;-58
2023/07/06 08:56:00;;;;;;;3.83;3.13;;;;;;;21.28;100.00;96546.72;4953134;28;102650;-58
2023/07/06 08:58:29;;;;;;;4.10;2.67;;;;;;;21.35;100.00;96549.75;4952203;28;102732;-58
2023/07/06 09:01:02;;;;;;;3.27;2.80;;;;;;;21.92;100.00;96545.91;4952775;28;101806;-58
2023/07/06 09:03:34;;;;;;;4.50;2.60;;;;;;;22.13;100.00;96536.03;4951443;28;105764;-58
2023/07/06 09:06:01;;;;;;;3.53;2.77;;;;;;;22.30;100.00;96536.00;4951771;28;102645;-58
2023/07/06 09:08:30;;;;;;;3.73;2.60;;;;;;;22.33;100.00;96535.34;4952814;28;102243;-58
2023/07/06 09:10:57;;;;;;;2.53;2.33;;;;;;;22.04;100.00;96535.22;4954655;28;105254;-58
2023/07/06 09:13:27;;;;;;;2.80;2.30;;;;;;;22.19;100.00;96535.53;4953357;28;101882;-59
2023/07/06 09:16:00;;;;;;;4.83;2.23;;;;;;;22.18;100.00;96533.16;4951613;28;105403;-59
2023/07/06 09:18:27;;;;;;;3.03;2.13;;;;;;;22.43;100.00;96532.31;4950926;28;105978;-59
2023/07/06 09:20:54;;;;;;;2.20;2.00;;;;;;;22.40;100.00;96527.56;4951795;28;102041;-59
2023/07/06 09:23:24;;;;;;;2.73;2.47;;;;;;;22.60;100.00;96524.97;4952915;28;102472;-59
2023/07/06 09:25:56;;;;;;;2.40;2.20;;;;;;;22.77;100.00;96529.56;4951154;28;105525;-59
2023/07/06 09:28:26;;;;;;;2.27;2.07;;;;;;;22.90;100.00;96531.28;4952498;28;101849;-59
2023/07/06 09:31:08;;;;;;;2.27;2.07;;;;;;;22.93;100.00;96539.56;4951848;28;105211;-59
2023/07/06 09:33:42;;;;;;;4.00;2.43;;;;;;;23.09;100.00;96527.03;4955797;28;102626;-59
2023/07/06 09:36:15;;;;;;;4.23;2.50;;;;;;;23.42;100.00;96527.19;4952856;28;103003;-58
2023/07/06 09:38:44;;;;;;;4.00;2.13;;;;;;;23.28;100.00;96530.16;4951080;28;103267;-58
2023/07/06 09:41:22;;;;;;;2.47;2.27;;;;;;;23.12;100.00;96526.41;4951224;28;102076;-60
2023/07/06 09:43:54;;;;;;;2.43;1.93;;;;;;;23.23;100.00;96534.97;4953137;28;102329;-60
2023/07/06 09:46:23;;;;;;;2.83;2.30;;;;;;;23.36;100.00;96531.22;4952595;28;102526;-60
2023/07/06 09:48:50;;;;;;;3.23;2.27;;;;;;;23.61;100.00;96533.00;4952661;28;102051;-58
2023/07/06 09:51:23;;;;;;;3.03;2.00;;;;;;;23.86;100.00;96537.47;4952538;28;102350;-60
2023/07/06 09:53:54;;;;;;;2.30;2.10;;;;;;;24.01;100.00;96537.72;4950542;28;105722;-61
2023/07/06 09:56:23;;;;;;;2.30;2.10;;;;;;;24.06;100.00;96539.41;4955968;28;102054;-60
2023/07/06 09:58:51;;;;;;;2.40;2.20;;;;;;;24.08;100.00;96539.91;4950665;28;102654;-60
2023/07/06 10:01:32;;;;;;;2.97;2.37;;;;;;;24.13;100.00;96539.69;4950807;28;102151;-60
2023/07/06 10:04:20;;;;;;;2.63;2.20;;;;;;;24.04;98.55;96538.97;4949739;28;105355;-60
2023/07/06 10:06:57;;;;;;;3.30;2.20;;;;;;;24.24;100.00;96540.88;4948300;28;104311;-60
2023/07/06 10:09:29;;;;;;;3.40;2.80;;;;;;;24.43;97.50;96546.59;4947616;28;102162;-60
2023/07/06 10:12:06;;;;;;;3.40;2.30;;;;;;;23.86;94.83;96529.34;4933335;28;102338;-60
2023/07/06 10:14:39;;;;;;;2.27;2.07;;;;;;;23.88;100.00;96532.50;4949298;28;103180;-60
2023/07/06 10:17:21;;;;;;;3.17;2.40;;;;;;;24.06;76.98;96528.53;4950961;28;102168;-60
2023/07/06 10:19:55;;;;;;;2.43;2.23;;;;;;;23.58;91.53;96523.59;4955248;28;102878;-61
2023/07/06 10:22:48;;;;;;;3.63;2.27;;;;;;;23.80;90.86;96525.19;4952565;28;101743;-60
2023/07/06 10:25:27;;;;;;;2.70;2.50;;;;;;;24.07;77.04;96532.84;4950487;28;105195;-60
2023/07/06 10:27:59;;;;;;;2.10;2.00;;;;;;;24.35;76.36;96521.09;4951551;28;103149;-60
2023/07/06 10:30:31;;;;;;;3.17;2.43;;;;;;;24.58;83.53;96535.91;4951042;28;101871;-60
2023/07/06 10:33:01;;;;;;;3.17;2.00;;;;;;;24.93;95.76;96531.72;4950796;28;104724;-60
2023/07/06 10:35:32;;;;;;;2.00;1.90;;;;;;;25.00;72.33;96520.25;4949441;28;105074;-60
2023/07/06 10:37:59;;;;;;;2.53;2.33;;;;;;;25.04;80.30;96518.44;4950838;28;101873;-60
2023/07/06 10:40:28;;;;;;;2.50;2.30;;;;;;;24.97;83.94;96523.66;4950353;28;104491;-60
2023/07/06 10:43:21;;;;;;;3.83;2.37;;;;;;;25.08;86.70;96522.09;4954266;28;101804;-60
2023/07/06 10:45:50;;;;;;;2.50;2.20;;;;;;;25.21;94.91;96527.19;4929601;28;105369;-60
2023/07/06 10:48:28;;;;;;;3.53;2.33;;;;;;;24.85;87.13;96518.22;4946145;28;105570;-60
2023/07/06 10:51:16;;;;;;;2.27;1.83;;;;;;;24.39;83.17;96510.34;4932582;28;101956;-60
2023/07/06 10:53:51;;;;;;;2.87;2.50;;;;;;;24.81;82.40;96509.13;4942626;28;104179;-60
2023/07/06 10:56:21;;;;;;;3.30;2.43;;;;;;;25.23;72.57;96505.09;4949453;28;105079;-60
2023/07/06 10:58:56;;;;;;;2.63;2.20;;;;;;;25.59;85.42;96505.88;4950422;28;101840;-60
2023/07/06 11:01:31;;;;;;;2.80;2.17;;;;;;;25.82;72.82;96517.09;4950377;28;105236;-59
2023/07/06 11:04:00;;;;;;;2.30;2.10;;;;;;;26.34;65.48;96513.19;4953045;28;105425;-59
2023/07/06 11:06:54;;;;;;;2.73;2.53;;;;;;;26.08;66.94;96514.75;4950282;28;105224;-60
2023/07/06 11:09:21;;;;;;;3.10;2.40;;;;;;;26.30;69.25;96508.75;4950025;28;103106;-60
2023/07/06 11:12:18;;;;;;;2.87;2.20;;;;;;;26.65;57.71;96510.53;4951606;28;101888;-60
2023/07/06 11:14:48;;;;;;;2.80;2.27;;;;;;;26.75;61.37;96503.81;4951915;28;102937;-60
2023/07/06 11:17:33;;;;;;;2.70;2.50;;;;;;;27.09;60.75;96503.09;4950698;28;102859;-60
2023/07/06 11:20:05;;;;;;;2.37;2.17;;;;;;;27.49;56.77;96498.25;4930496;28;101999;-60
2023/07/06 11:22:33;;;;;;;2.40;2.20;;;;;;;27.07;63.43;96505.38;4932180;28;102344;-60
2023/07/06 11:25:03;;;;;;;2.60;2.40;;;;;;;26.14;55.03;96510.63;4941870;28;102565;-60
2023/07/06 11:27:34;;;;;;;3.60;2.43;;;;;;;25.51;51.60;96503.28;4952831;28;101990;-60
2023/07/06 11:30:12;;;;;;;2.83;2.40;;;;;;;23.83;73.79;96506.34;4949393;28;105216;-60